Woodbridge, California
Current Conditions -  °F | °C
As of 12:55 AM on Saturday 29 Nov 2014 (Local Time) from KSCK Reporting Station
Haze Haze  
Wind Chill: 51°   Ceiling: 7500
Heat Index: 51°   Visibility: 3mi
Dew Point: 47°   Wind: 5mph
Humidity: 86%   Direction: 130°SE
Pressure: 29.85"   Gusts: NA
Location:  38.15°N, 121.3°W
Report Text: KSCK 290855Z 13004KT 3SM BR SCT047 SCT060 OVC075 11/08 A2985 RMK AO2 SLP108 T01060083 58009
Loading
Personal Weather Stations






























Interactive Weather Map New forecast layout! Learn more

10-Day Weather Forecast

Advertisements
Track Severe Weather on mobile